createdAt,value
2024-05-09T00:04:07.942Z,15.00
2024-05-09T00:09:12.005Z,15.00
2024-05-09T00:14:15.740Z,15.00
2024-05-09T00:19:19.700Z,15.00
2024-05-09T00:24:23.475Z,15.00
2024-05-09T00:29:27.416Z,15.00
2024-05-09T00:34:31.635Z,15.00
2024-05-09T00:39:35.315Z,15.10
2024-05-09T00:44:39.093Z,15.10
2024-05-09T00:49:42.979Z,15.00
2024-05-09T00:54:47.065Z,15.00
2024-05-09T00:59:51.752Z,15.00
2024-05-09T01:04:55.904Z,15.00
2024-05-09T01:09:59.648Z,15.00
2024-05-09T01:15:03.464Z,14.90
2024-05-09T01:20:10.886Z,14.90
2024-05-09T01:25:22.547Z,14.90
2024-05-09T01:30:33.348Z,14.90
2024-05-09T01:35:41.869Z,14.90
2024-05-09T01:40:48.362Z,14.90
2024-05-09T01:45:51.841Z,14.90
2024-05-09T01:50:55.536Z,14.80
2024-05-09T01:55:59.330Z,14.80
2024-05-09T02:01:03.163Z,14.80
2024-05-09T02:06:08.305Z,14.70
2024-05-09T02:11:12.452Z,14.70
2024-05-09T02:16:21.685Z,14.60
2024-05-09T02:21:30.722Z,14.60
2024-05-09T02:26:34.525Z,14.50
2024-05-09T02:31:49.993Z,14.50
2024-05-09T02:36:56.231Z,14.40
2024-05-09T02:42:00.339Z,14.30
2024-05-09T02:47:04.800Z,14.30
2024-05-09T02:52:08.619Z,14.20
2024-05-09T02:57:12.198Z,14.10
2024-05-09T03:02:15.774Z,14.10
2024-05-09T03:07:20.315Z,14.10
2024-05-09T03:12:23.922Z,14.00
2024-05-09T03:17:27.708Z,13.90
2024-05-09T03:22:31.619Z,13.90
2024-05-09T03:27:38.185Z,13.80
2024-05-09T03:32:44.297Z,13.80
2024-05-09T03:37:48.082Z,13.80
2024-05-09T03:42:51.782Z,13.80
2024-05-09T03:47:55.762Z,13.70
2024-05-09T03:52:59.688Z,13.80
2024-05-09T03:58:03.840Z,13.80
2024-05-09T04:03:10.527Z,13.80
2024-05-09T04:08:16.260Z,13.90
2024-05-09T04:13:19.935Z,14.00
2024-05-09T04:18:23.704Z,14.10
2024-05-09T04:23:27.509Z,14.20
2024-05-09T04:28:31.204Z,14.30
2024-05-09T04:33:35.190Z,14.50
2024-05-09T04:38:39.067Z,14.60
2024-05-09T04:43:42.820Z,14.70
2024-05-09T04:48:46.718Z,14.80
2024-05-09T04:53:50.346Z,14.90
2024-05-09T04:58:54.051Z,14.90
2024-05-09T05:03:59.256Z,14.90
2024-05-09T05:09:03.398Z,14.90
2024-05-09T05:14:07.463Z,14.90
2024-05-09T05:19:13.500Z,15.00
2024-05-09T05:24:18.687Z,15.00
2024-05-09T05:29:22.465Z,15.00
2024-05-09T05:34:26.230Z,15.10
2024-05-09T05:39:29.937Z,15.10
2024-05-09T05:44:33.653Z,15.20
2024-05-09T05:49:37.648Z,15.30
2024-05-09T05:54:41.494Z,15.40
2024-05-09T05:59:45.230Z,15.50
2024-05-09T06:04:49.299Z,15.60
2024-05-09T06:09:53.188Z,15.70
2024-05-09T06:14:56.958Z,15.70
2024-05-09T06:20:00.632Z,15.80
2024-05-09T06:25:04.947Z,15.80
2024-05-09T06:30:14.409Z,15.90
2024-05-09T06:35:24.310Z,16.00
2024-05-09T06:40:36.347Z,16.10
2024-05-09T06:45:42.667Z,16.20
2024-05-09T06:50:46.570Z,16.30
2024-05-09T06:55:50.407Z,16.50
2024-05-09T07:00:54.174Z,16.60
2024-05-09T07:05:57.875Z,16.70
2024-05-09T07:11:01.747Z,16.80
2024-05-09T07:16:05.469Z,17.00
2024-05-09T07:21:09.328Z,17.10
2024-05-09T07:26:13.408Z,17.40
2024-05-09T07:31:17.320Z,17.60
2024-05-09T07:36:21.084Z,17.80
2024-05-09T07:41:25.356Z,18.10
2024-05-09T07:47:36.880Z,18.20
2024-05-09T07:53:21.629Z,18.60
2024-05-09T07:57:17.449Z,19.00
2024-05-09T08:02:24.341Z,19.40
2024-05-09T08:07:27.854Z,19.70
2024-05-09T08:12:31.860Z,19.70
2024-05-09T08:17:35.575Z,19.70
2024-05-09T08:22:39.295Z,19.90
2024-05-09T08:27:43.062Z,20.00
2024-05-09T08:32:48.333Z,20.10
2024-05-09T08:37:53.586Z,20.20
2024-05-09T08:42:58.136Z,20.30
2024-05-09T08:48:07.664Z,20.40
2024-05-09T08:53:11.609Z,20.50
2024-05-09T08:58:19.926Z,20.60
2024-05-09T09:03:32.974Z,20.70
2024-05-09T09:08:39.587Z,20.80
2024-05-09T09:13:43.362Z,21.00
2024-05-09T09:18:47.394Z,21.20
2024-05-09T09:23:51.246Z,21.50
2024-05-09T09:29:01.942Z,21.70
2024-05-09T09:34:09.233Z,21.90
2024-05-09T09:39:17.425Z,21.90
2024-05-09T09:44:22.290Z,21.70
2024-05-09T09:49:33.410Z,21.60
2024-05-09T09:54:37.153Z,21.70
2024-05-09T09:59:46.804Z,21.80
2024-05-09T10:04:51.520Z,21.80
2024-05-09T10:09:56.499Z,21.90
2024-05-09T10:15:09.106Z,21.80
2024-05-09T10:20:21.324Z,21.90
2024-05-09T10:25:28.616Z,21.90
2024-05-09T10:30:36.140Z,22.00
2024-05-09T10:35:53.833Z,22.00
2024-05-09T10:40:59.075Z,21.90
2024-05-09T10:46:04.180Z,22.10
2024-05-09T10:51:09.025Z,22.20
2024-05-09T10:56:17.114Z,22.30
2024-05-09T11:01:21.378Z,22.40
2024-05-09T11:06:25.900Z,22.50
2024-05-09T11:11:29.782Z,22.60
2024-05-09T11:16:33.470Z,22.70
2024-05-09T11:21:37.184Z,22.80
2024-05-09T11:26:41.045Z,23.00
2024-05-09T11:31:48.576Z,23.20
2024-05-09T11:36:52.448Z,23.30
2024-05-09T11:41:57.400Z,23.40
2024-05-09T11:47:01.042Z,23.50
2024-05-09T11:52:05.195Z,23.50
2024-05-09T11:57:09.627Z,23.60
2024-05-09T12:02:13.613Z,23.60
2024-05-09T12:07:21.579Z,23.70
2024-05-09T12:12:25.286Z,23.90
2024-05-09T12:17:29.062Z,24.10
2024-05-09T12:22:32.819Z,24.30
2024-05-09T12:27:37.369Z,24.40
2024-05-09T12:32:41.213Z,24.60
2024-05-09T12:37:45.009Z,24.90
2024-05-09T12:42:49.655Z,24.90
2024-05-09T12:47:53.546Z,25.10
2024-05-09T12:52:57.320Z,25.30
2024-05-09T12:58:01.359Z,25.50
2024-05-09T13:03:06.389Z,25.70
2024-05-09T13:08:10.442Z,26.10
2024-05-09T13:13:14.720Z,26.20
2024-05-09T13:18:18.645Z,26.60
2024-05-09T13:23:22.310Z,26.90
2024-05-09T13:28:26.743Z,26.70
2024-05-09T13:33:30.661Z,26.70
2024-05-09T13:38:34.511Z,26.70
2024-05-09T13:43:38.893Z,26.70
2024-05-09T13:48:42.626Z,26.70
2024-05-09T13:53:46.166Z,26.70
2024-05-09T13:58:51.275Z,26.80
2024-05-09T14:03:54.990Z,26.80
2024-05-09T14:08:59.028Z,26.80
2024-05-09T14:14:03.179Z,26.90
2024-05-09T14:19:07.181Z,27.10
2024-05-09T14:24:10.775Z,27.10
2024-05-09T14:29:14.528Z,27.00
2024-05-09T14:34:18.368Z,27.10
2024-05-09T14:39:22.236Z,26.90
2024-05-09T14:44:25.729Z,27.00
2024-05-09T14:49:29.443Z,27.10
2024-05-09T14:54:32.978Z,27.00
2024-05-09T14:59:36.788Z,26.80
2024-05-09T15:04:40.738Z,26.90
2024-05-09T15:09:47.006Z,26.90
2024-05-09T15:14:50.570Z,27.00
2024-05-09T15:19:54.404Z,26.90
2024-05-09T15:24:58.150Z,26.70
2024-05-09T15:30:05.607Z,26.70
2024-05-09T15:35:12.250Z,27.00
2024-05-09T15:40:26.019Z,27.30
2024-05-09T15:45:40.268Z,27.40
2024-05-09T15:50:44.910Z,27.40
2024-05-09T15:55:49.137Z,27.40
2024-05-09T16:00:52.997Z,27.30
2024-05-09T16:05:58.552Z,27.20
2024-05-09T16:11:03.023Z,27.10
2024-05-09T16:16:07.226Z,27.10
2024-05-09T16:21:11.101Z,27.00
2024-05-09T16:26:14.907Z,27.10
2024-05-09T16:31:18.644Z,27.10
2024-05-09T16:36:22.348Z,27.10
2024-05-09T16:41:26.704Z,27.10
2024-05-09T16:46:31.429Z,27.00
2024-05-09T16:51:34.942Z,26.70
2024-05-09T16:56:39.016Z,26.20
2024-05-09T17:01:42.782Z,25.50
2024-05-09T17:06:46.842Z,25.00
2024-05-09T17:11:50.781Z,24.50
2024-05-09T17:16:54.481Z,24.10
2024-05-09T17:21:58.267Z,23.70
2024-05-09T17:27:01.916Z,23.30
2024-05-09T17:32:06.796Z,22.90
2024-05-09T17:37:10.885Z,22.50
2024-05-09T17:42:14.806Z,22.30
2024-05-09T17:47:18.698Z,21.90
2024-05-09T17:52:22.386Z,21.50
2024-05-09T17:57:26.820Z,21.10
2024-05-09T18:02:30.832Z,20.60
2024-05-09T18:07:35.309Z,20.20
2024-05-09T18:12:39.183Z,19.80
2024-05-09T18:17:43.059Z,19.50
2024-05-09T18:22:46.918Z,19.30
2024-05-09T18:27:50.855Z,19.00
2024-05-09T18:32:54.886Z,18.70
2024-05-09T18:37:58.833Z,18.50
2024-05-09T18:43:03.472Z,18.30
2024-05-09T18:48:12.167Z,18.20
2024-05-09T18:53:16.266Z,18.00
2024-05-09T18:58:20.569Z,17.70
2024-05-09T19:03:24.462Z,17.60
2024-05-09T19:08:28.644Z,17.40
2024-05-09T19:13:35.707Z,17.20
2024-05-09T19:18:39.787Z,17.10
2024-05-09T19:23:50.510Z,16.90
2024-05-09T19:28:58.130Z,16.80
2024-05-09T19:34:02.649Z,16.70
2024-05-09T19:39:16.533Z,16.60
2024-05-09T19:44:20.484Z,16.50
2024-05-09T19:49:24.466Z,16.40
2024-05-09T19:54:28.681Z,16.30
2024-05-09T19:59:33.217Z,16.20
2024-05-09T20:04:37.124Z,16.10
2024-05-09T20:09:44.181Z,16.00
2024-05-09T20:14:47.977Z,15.90
2024-05-09T20:19:54.723Z,15.80
2024-05-09T20:24:58.534Z,15.80
2024-05-09T20:30:02.393Z,15.70
2024-05-09T20:35:06.455Z,15.50
2024-05-09T20:40:18.190Z,15.40
2024-05-09T20:45:30.362Z,15.30
2024-05-09T20:50:39.317Z,15.20
2024-05-09T20:55:48.352Z,15.10
2024-05-09T21:00:52.514Z,14.90
2024-05-09T21:05:58.586Z,14.80
2024-05-09T21:11:03.436Z,14.60
2024-05-09T21:16:11.103Z,14.50
2024-05-09T21:21:15.479Z,14.40
2024-05-09T21:26:24.158Z,14.30
2024-05-09T21:31:28.159Z,14.20
2024-05-09T21:36:35.395Z,14.10
2024-05-09T21:41:39.291Z,14.00
2024-05-09T21:46:43.582Z,13.90
2024-05-09T21:51:49.802Z,13.80
2024-05-09T21:56:56.750Z,13.80
2024-05-09T22:02:00.530Z,13.70
2024-05-09T22:07:06.260Z,13.60
2024-05-09T22:12:10.091Z,13.50
2024-05-09T22:17:14.076Z,13.40
2024-05-09T22:22:17.631Z,13.30
2024-05-09T22:27:21.236Z,13.20
2024-05-09T22:32:24.929Z,13.10
2024-05-09T22:37:28.721Z,13.00
2024-05-09T22:42:32.307Z,13.00
2024-05-09T22:47:36.087Z,12.90
2024-05-09T22:52:40.058Z,12.90
2024-05-09T22:57:43.756Z,12.90
2024-05-09T23:02:47.534Z,12.80
2024-05-09T23:07:51.323Z,12.80
2024-05-09T23:12:55.713Z,12.70
2024-05-09T23:17:59.547Z,12.70
2024-05-09T23:23:03.478Z,12.70
2024-05-09T23:28:07.898Z,12.70
2024-05-09T23:33:13.449Z,12.60
2024-05-09T23:38:19.527Z,12.60
2024-05-09T23:43:25.718Z,12.60
2024-05-09T23:48:30.727Z,12.60
2024-05-09T23:53:34.284Z,12.50
2024-05-09T23:58:37.675Z,12.50
